Pagrindinis puslapis
METAR-TAF:

METAR-TAF

Oro uostai :

Ahvazas, Iranas

platuma: 31-20N, ilguma: 048-40E, Aukštis: 20 m

Dabartinis oras

Ataskaita buvo paskelbta 24 minutes, ne 19:00 UTC
Vėjas 6 kt iš Pietų
Temperatūra 27°C
Drėgmė 37%
Slėgis 1011 hPa
Matomumas 10 km arba daugiau
nėra debesų žemiau 1500 m ir nėra kamuolinių lietaus debesų

METAR: OIAW 131900Z 18006KT CAVOK 27/11 Q1011

Laikas: 23:54 (19:24 UTC)

Prognozė

Ataskaita buvo paskelbta 2 valandos ir 14 minutes, ne 17:10 UTC
Prognozė galioja nuo 13 metu 18 UTC su 14 metu 24 UTC
Vėjas 8 kt iš Vakarų/Pietvakarių
Matomumas: 7000 m
Mažai debesys ne aukštis 3500 ft
Laikinai
nuo 14 metu 08 UTC su 14 metu 20 UTC
Vėjas 18 kt iš Šiaurės Vakarų su gūsio iki 28 kt
Mažai debesys ne aukštis 3500 ft, Liūtiniai kamuoliniai debesys.
Išsisklaidę debesys ne aukštis 4000 ft
Išsisklaidę debesys ne aukštis 10000 ft

TAF: OIAW 131710Z 1318/1424 24008KT 7000 FEW035 TEMPO 1408/1420 32018G28KT FEW035CB SCT040 SCT100

Orai ataskaitas ir orų prognozės (METAR, TAF).

turimą stotys yra geltonos ir raudonos taškus žemėlapyje.

Perkelti pele per norėdami pamatyti stoties vardą.

Tada spustelėkite, norėdami matyti oro stebėjimo ir prognozės.

Norėdami pakeisti žemėlapį: spustelėkite ant žalios mygtukų su juodo kryžiaus žemyn,; žalią mygtuką su brūkšneliu, jei norite nutolinti; arba žalių rodyklių gretimoms žemėlapius.


METAR-TAF: